Albert, New Mexico
Current Conditions -  °F | °C
As of 5:53 PM on Tuesday 21 Oct 2014 (Local Time) from KTCC Reporting Station
Scattered Clouds Scattered Clouds  
Wind Chill: 64°   Ceiling: Unl
Heat Index: 64°   Visibility: 10mi
Dew Point: 53°   Wind: 18mph
Humidity: 67%   Direction: 220°SW
Pressure: 30.04"   Gusts: 26mph
Location:  35.7181°N, 103.591°W
Report Text: KTCC 212353Z AUTO 22016G23KT 10SM SCT100 18/12 A3004 RMK AO2 SLP141 60000 T01780117 10244 20178 55002
Loading
Personal Weather Stations






























Interactive Weather Map
Tropical Storm Tracking
New forecast layout! Learn more

10-Day Weather Forecast

Advertisements
Track Severe Weather on mobile